sensor_id;sensor_type;location;lat;lon;timestamp;temperature;humidity
77865;DHT22;67061;48.524;9.040;2023-04-03T00:00:41;3.10;85.70
77865;DHT22;67061;48.524;9.040;2023-04-03T00:03:08;3.20;84.90
77865;DHT22;67061;48.524;9.040;2023-04-03T00:05:35;3.30;84.60
77865;DHT22;67061;48.524;9.040;2023-04-03T00:08:02;3.30;84.50
77865;DHT22;67061;48.524;9.040;2023-04-03T00:10:31;3.30;84.80
77865;DHT22;67061;48.524;9.040;2023-04-03T00:12:58;3.10;84.00
77865;DHT22;67061;48.524;9.040;2023-04-03T00:15:25;3.10;83.70
77865;DHT22;67061;48.524;9.040;2023-04-03T00:17:52;3.00;83.50
77865;DHT22;67061;48.524;9.040;2023-04-03T00:20:19;3.00;84.00
77865;DHT22;67061;48.524;9.040;2023-04-03T00:22:46;3.00;83.90
77865;DHT22;67061;48.524;9.040;2023-04-03T00:25:13;3.00;84.80
77865;DHT22;67061;48.524;9.040;2023-04-03T00:27:41;3.10;84.30
77865;DHT22;67061;48.524;9.040;2023-04-03T00:30:11;3.10;83.80
77865;DHT22;67061;48.524;9.040;2023-04-03T00:32:40;3.10;83.80
77865;DHT22;67061;48.524;9.040;2023-04-03T00:35:07;3.10;84.50
77865;DHT22;67061;48.524;9.040;2023-04-03T00:37:34;3.10;83.30
77865;DHT22;67061;48.524;9.040;2023-04-03T00:40:02;3.10;84.50
77865;DHT22;67061;48.524;9.040;2023-04-03T00:42:29;3.10;84.20
77865;DHT22;67061;48.524;9.040;2023-04-03T00:45:31;3.10;83.10
77865;DHT22;67061;48.524;9.040;2023-04-03T00:48:00;3.10;83.20
77865;DHT22;67061;48.524;9.040;2023-04-03T00:50:27;3.00;84.00
77865;DHT22;67061;48.524;9.040;2023-04-03T00:52:55;2.90;82.60
77865;DHT22;67061;48.524;9.040;2023-04-03T00:55:23;2.90;83.80
77865;DHT22;67061;48.524;9.040;2023-04-03T00:57:51;2.90;83.20
77865;DHT22;67061;48.524;9.040;2023-04-03T01:00:20;2.90;84.10
77865;DHT22;67061;48.524;9.040;2023-04-03T01:02:49;2.90;83.30
77865;DHT22;67061;48.524;9.040;2023-04-03T01:05:16;2.90;84.00
77865;DHT22;67061;48.524;9.040;2023-04-03T01:07:44;2.90;83.70
77865;DHT22;67061;48.524;9.040;2023-04-03T01:10:14;2.90;83.60
77865;DHT22;67061;48.524;9.040;2023-04-03T01:12:44;3.00;84.00
77865;DHT22;67061;48.524;9.040;2023-04-03T01:15:16;3.00;83.50
77865;DHT22;67061;48.524;9.040;2023-04-03T01:17:44;3.00;83.30
77865;DHT22;67061;48.524;9.040;2023-04-03T01:20:42;2.90;83.40
77865;DHT22;67061;48.524;9.040;2023-04-03T01:23:21;2.90;82.70
77865;DHT22;67061;48.524;9.040;2023-04-03T01:25:51;2.90;83.30
77865;DHT22;67061;48.524;9.040;2023-04-03T01:28:22;2.90;83.60
77865;DHT22;67061;48.524;9.040;2023-04-03T01:30:53;2.80;83.20
77865;DHT22;67061;48.524;9.040;2023-04-03T01:33:22;2.80;83.20
77865;DHT22;67061;48.524;9.040;2023-04-03T01:35:50;2.80;82.80
77865;DHT22;67061;48.524;9.040;2023-04-03T01:38:16;2.70;83.00
77865;DHT22;67061;48.524;9.040;2023-04-03T01:40:43;2.70;82.90
77865;DHT22;67061;48.524;9.040;2023-04-03T01:43:10;2.70;83.80
77865;DHT22;67061;48.524;9.040;2023-04-03T01:45:37;2.70;84.10
77865;DHT22;67061;48.524;9.040;2023-04-03T01:48:04;2.80;82.80
77865;DHT22;67061;48.524;9.040;2023-04-03T01:50:33;2.80;83.00
77865;DHT22;67061;48.524;9.040;2023-04-03T01:52:59;2.70;83.90
77865;DHT22;67061;48.524;9.040;2023-04-03T01:55:26;2.70;83.90
77865;DHT22;67061;48.524;9.040;2023-04-03T01:57:53;2.70;83.90
77865;DHT22;67061;48.524;9.040;2023-04-03T02:00:20;2.70;83.90
77865;DHT22;67061;48.524;9.040;2023-04-03T02:02:47;2.70;83.10
77865;DHT22;67061;48.524;9.040;2023-04-03T02:05:14;2.70;83.40
77865;DHT22;67061;48.524;9.040;2023-04-03T02:07:42;2.70;83.70
77865;DHT22;67061;48.524;9.040;2023-04-03T02:10:09;2.70;82.80
77865;DHT22;67061;48.524;9.040;2023-04-03T02:12:36;2.60;84.20
77865;DHT22;67061;48.524;9.040;2023-04-03T02:15:04;2.60;84.00
77865;DHT22;67061;48.524;9.040;2023-04-03T02:17:31;2.60;84.00
77865;DHT22;67061;48.524;9.040;2023-04-03T02:19:58;2.70;83.70
77865;DHT22;67061;48.524;9.040;2023-04-03T02:22:25;2.70;82.80
77865;DHT22;67061;48.524;9.040;2023-04-03T02:24:53;2.50;83.50
77865;DHT22;67061;48.524;9.040;2023-04-03T02:27:20;2.60;83.30
77865;DHT22;67061;48.524;9.040;2023-04-03T02:29:47;2.50;82.80
77865;DHT22;67061;48.524;9.040;2023-04-03T02:32:14;2.50;83.00
77865;DHT22;67061;48.524;9.040;2023-04-03T02:34:41;2.50;82.30
77865;DHT22;67061;48.524;9.040;2023-04-03T02:37:08;2.50;82.20
77865;DHT22;67061;48.524;9.040;2023-04-03T02:39:35;2.50;82.10
77865;DHT22;67061;48.524;9.040;2023-04-03T02:42:04;2.40;82.20
77865;DHT22;67061;48.524;9.040;2023-04-03T02:44:30;2.40;81.40
77865;DHT22;67061;48.524;9.040;2023-04-03T02:46:57;2.40;81.80
77865;DHT22;67061;48.524;9.040;2023-04-03T02:49:24;2.40;81.30
77865;DHT22;67061;48.524;9.040;2023-04-03T02:51:51;2.40;81.50
77865;DHT22;67061;48.524;9.040;2023-04-03T02:54:18;2.40;81.00
77865;DHT22;67061;48.524;9.040;2023-04-03T02:56:45;2.40;81.70
77865;DHT22;67061;48.524;9.040;2023-04-03T02:59:13;2.40;81.30
77865;DHT22;67061;48.524;9.040;2023-04-03T03:01:40;2.40;81.30
77865;DHT22;67061;48.524;9.040;2023-04-03T03:04:07;2.40;81.80
77865;DHT22;67061;48.524;9.040;2023-04-03T03:06:34;2.40;81.70
77865;DHT22;67061;48.524;9.040;2023-04-03T03:09:01;2.40;81.80
77865;DHT22;67061;48.524;9.040;2023-04-03T03:11:29;2.50;81.50
77865;DHT22;67061;48.524;9.040;2023-04-03T03:13:56;2.40;81.60
77865;DHT22;67061;48.524;9.040;2023-04-03T03:16:24;2.40;82.20
77865;DHT22;67061;48.524;9.040;2023-04-03T03:18:51;2.40;81.80
77865;DHT22;67061;48.524;9.040;2023-04-03T03:21:18;2.40;81.60
77865;DHT22;67061;48.524;9.040;2023-04-03T03:23:45;2.40;82.00
77865;DHT22;67061;48.524;9.040;2023-04-03T03:26:12;2.40;81.80
77865;DHT22;67061;48.524;9.040;2023-04-03T03:28:39;2.40;81.90
77865;DHT22;67061;48.524;9.040;2023-04-03T03:31:06;2.40;82.00
77865;DHT22;67061;48.524;9.040;2023-04-03T03:33:35;2.40;82.10
77865;DHT22;67061;48.524;9.040;2023-04-03T03:36:02;2.40;82.00
77865;DHT22;67061;48.524;9.040;2023-04-03T03:38:29;2.30;81.60
77865;DHT22;67061;48.524;9.040;2023-04-03T03:40:56;2.30;81.60
77865;DHT22;67061;48.524;9.040;2023-04-03T03:43:23;2.20;82.10
77865;DHT22;67061;48.524;9.040;2023-04-03T03:45:50;2.30;82.50
77865;DHT22;67061;48.524;9.040;2023-04-03T03:48:18;2.30;82.00
77865;DHT22;67061;48.524;9.040;2023-04-03T03:50:47;2.30;82.20
77865;DHT22;67061;48.524;9.040;2023-04-03T03:53:14;2.20;81.70
77865;DHT22;67061;48.524;9.040;2023-04-03T03:55:41;2.30;82.30
77865;DHT22;67061;48.524;9.040;2023-04-03T03:58:08;2.30;82.10
77865;DHT22;67061;48.524;9.040;2023-04-03T04:00:36;2.30;82.30
77865;DHT22;67061;48.524;9.040;2023-04-03T04:03:03;2.30;81.60
77865;DHT22;67061;48.524;9.040;2023-04-03T04:05:30;2.30;81.50
77865;DHT22;67061;48.524;9.040;2023-04-03T04:07:58;2.30;82.10
77865;DHT22;67061;48.524;9.040;2023-04-03T04:10:25;2.30;81.60
77865;DHT22;67061;48.524;9.040;2023-04-03T04:12:52;2.30;81.40
77865;DHT22;67061;48.524;9.040;2023-04-03T04:15:19;2.30;81.80
77865;DHT22;67061;48.524;9.040;2023-04-03T04:17:47;2.30;81.60
77865;DHT22;67061;48.524;9.040;2023-04-03T04:20:14;2.30;82.10
77865;DHT22;67061;48.524;9.040;2023-04-03T04:22:41;2.40;81.80
77865;DHT22;67061;48.524;9.040;2023-04-03T04:25:09;2.30;81.10
77865;DHT22;67061;48.524;9.040;2023-04-03T04:27:37;2.20;81.80
77865;DHT22;67061;48.524;9.040;2023-04-03T04:30:05;2.20;81.90
77865;DHT22;67061;48.524;9.040;2023-04-03T04:32:32;2.20;83.00
77865;DHT22;67061;48.524;9.040;2023-04-03T04:34:59;2.30;82.70
77865;DHT22;67061;48.524;9.040;2023-04-03T04:37:26;2.20;81.80
77865;DHT22;67061;48.524;9.040;2023-04-03T04:39:53;2.20;82.30
77865;DHT22;67061;48.524;9.040;2023-04-03T04:42:21;2.20;82.50
77865;DHT22;67061;48.524;9.040;2023-04-03T04:44:48;2.10;82.90
77865;DHT22;67061;48.524;9.040;2023-04-03T04:47:15;2.20;82.80
77865;DHT22;67061;48.524;9.040;2023-04-03T04:49:42;2.20;83.60
77865;DHT22;67061;48.524;9.040;2023-04-03T04:52:09;2.20;83.00
77865;DHT22;67061;48.524;9.040;2023-04-03T04:54:36;2.20;82.20
77865;DHT22;67061;48.524;9.040;2023-04-03T04:57:03;2.20;82.80
77865;DHT22;67061;48.524;9.040;2023-04-03T04:59:31;2.20;82.20
77865;DHT22;67061;48.524;9.040;2023-04-03T05:01:58;2.30;82.20
77865;DHT22;67061;48.524;9.040;2023-04-03T05:04:26;2.30;82.10
77865;DHT22;67061;48.524;9.040;2023-04-03T05:06:53;2.30;81.70
77865;DHT22;67061;48.524;9.040;2023-04-03T05:09:19;2.30;82.00
77865;DHT22;67061;48.524;9.040;2023-04-03T05:11:46;2.30;81.60
77865;DHT22;67061;48.524;9.040;2023-04-03T05:14:13;2.30;81.10
77865;DHT22;67061;48.524;9.040;2023-04-03T05:16:42;2.30;80.70
77865;DHT22;67061;48.524;9.040;2023-04-03T05:19:08;2.30;80.80
77865;DHT22;67061;48.524;9.040;2023-04-03T05:21:35;2.40;80.50
77865;DHT22;67061;48.524;9.040;2023-04-03T05:24:02;2.40;80.70
77865;DHT22;67061;48.524;9.040;2023-04-03T05:26:30;2.40;80.60
77865;DHT22;67061;48.524;9.040;2023-04-03T05:28:57;2.40;79.90
77865;DHT22;67061;48.524;9.040;2023-04-03T05:31:24;2.40;80.30
77865;DHT22;67061;48.524;9.040;2023-04-03T05:33:52;2.40;79.70
77865;DHT22;67061;48.524;9.040;2023-04-03T05:36:19;2.40;78.90
77865;DHT22;67061;48.524;9.040;2023-04-03T05:38:46;2.40;76.40
77865;DHT22;67061;48.524;9.040;2023-04-03T05:41:13;2.40;76.50
77865;DHT22;67061;48.524;9.040;2023-04-03T05:43:40;2.40;77.40
77865;DHT22;67061;48.524;9.040;2023-04-03T05:46:10;2.40;77.60
77865;DHT22;67061;48.524;9.040;2023-04-03T05:48:37;2.50;76.50
77865;DHT22;67061;48.524;9.040;2023-04-03T05:51:06;2.50;77.20
77865;DHT22;67061;48.524;9.040;2023-04-03T05:53:34;2.50;77.00
77865;DHT22;67061;48.524;9.040;2023-04-03T05:56:02;2.50;76.60
77865;DHT22;67061;48.524;9.040;2023-04-03T05:58:29;2.50;76.40
77865;DHT22;67061;48.524;9.040;2023-04-03T06:00:56;2.70;76.60
77865;DHT22;67061;48.524;9.040;2023-04-03T06:03:23;2.60;76.50
77865;DHT22;67061;48.524;9.040;2023-04-03T06:05:50;2.70;75.20
77865;DHT22;67061;48.524;9.040;2023-04-03T06:08:19;2.60;74.50
77865;DHT22;67061;48.524;9.040;2023-04-03T06:10:46;2.60;74.70
77865;DHT22;67061;48.524;9.040;2023-04-03T06:13:13;2.60;74.60
77865;DHT22;67061;48.524;9.040;2023-04-03T06:15:40;2.70;74.90
77865;DHT22;67061;48.524;9.040;2023-04-03T06:18:07;2.80;74.80
77865;DHT22;67061;48.524;9.040;2023-04-03T06:20:35;2.80;74.10
77865;DHT22;67061;48.524;9.040;2023-04-03T06:23:02;2.90;74.30
77865;DHT22;67061;48.524;9.040;2023-04-03T06:25:30;2.90;73.60
77865;DHT22;67061;48.524;9.040;2023-04-03T06:27:57;2.90;72.50
77865;DHT22;67061;48.524;9.040;2023-04-03T06:30:24;2.90;72.90
77865;DHT22;67061;48.524;9.040;2023-04-03T06:32:51;2.90;72.60
77865;DHT22;67061;48.524;9.040;2023-04-03T06:35:18;3.00;71.20
77865;DHT22;67061;48.524;9.040;2023-04-03T06:37:46;3.00;72.10
77865;DHT22;67061;48.524;9.040;2023-04-03T06:40:19;3.00;71.50
77865;DHT22;67061;48.524;9.040;2023-04-03T06:42:48;3.10;72.20
77865;DHT22;67061;48.524;9.040;2023-04-03T06:45:16;3.10;72.50
77865;DHT22;67061;48.524;9.040;2023-04-03T06:47:43;3.10;71.80
77865;DHT22;67061;48.524;9.040;2023-04-03T06:50:11;3.10;72.20
77865;DHT22;67061;48.524;9.040;2023-04-03T06:52:39;3.10;72.80
77865;DHT22;67061;48.524;9.040;2023-04-03T06:55:07;3.10;72.90
77865;DHT22;67061;48.524;9.040;2023-04-03T06:57:35;3.10;73.20
77865;DHT22;67061;48.524;9.040;2023-04-03T07:00:05;3.10;72.70
77865;DHT22;67061;48.524;9.040;2023-04-03T07:02:32;3.10;73.00
77865;DHT22;67061;48.524;9.040;2023-04-03T07:04:59;3.10;74.10
77865;DHT22;67061;48.524;9.040;2023-04-03T07:07:26;3.20;73.20
77865;DHT22;67061;48.524;9.040;2023-04-03T07:09:53;3.10;72.90
77865;DHT22;67061;48.524;9.040;2023-04-03T07:12:20;3.10;74.00
77865;DHT22;67061;48.524;9.040;2023-04-03T07:14:47;3.10;74.40
77865;DHT22;67061;48.524;9.040;2023-04-03T07:17:15;3.30;74.20
77865;DHT22;67061;48.524;9.040;2023-04-03T07:19:42;3.40;73.60
77865;DHT22;67061;48.524;9.040;2023-04-03T07:22:09;3.50;73.20
77865;DHT22;67061;48.524;9.040;2023-04-03T07:24:37;3.50;71.90
77865;DHT22;67061;48.524;9.040;2023-04-03T07:27:04;3.50;72.70
77865;DHT22;67061;48.524;9.040;2023-04-03T07:29:33;3.50;72.50
77865;DHT22;67061;48.524;9.040;2023-04-03T07:32:00;3.40;71.00
77865;DHT22;67061;48.524;9.040;2023-04-03T07:34:29;3.40;71.60
77865;DHT22;67061;48.524;9.040;2023-04-03T07:36:56;3.50;72.30
77865;DHT22;67061;48.524;9.040;2023-04-03T07:39:23;3.60;71.90
77865;DHT22;67061;48.524;9.040;2023-04-03T07:41:51;3.70;70.80
77865;DHT22;67061;48.524;9.040;2023-04-03T07:44:18;3.60;69.90
77865;DHT22;67061;48.524;9.040;2023-04-03T07:46:44;3.70;70.30
77865;DHT22;67061;48.524;9.040;2023-04-03T07:49:12;3.90;70.40
77865;DHT22;67061;48.524;9.040;2023-04-03T07:51:40;4.10;70.30
77865;DHT22;67061;48.524;9.040;2023-04-03T07:54:07;4.10;70.00
77865;DHT22;67061;48.524;9.040;2023-04-03T07:56:34;4.20;70.10
77865;DHT22;67061;48.524;9.040;2023-04-03T07:59:01;4.20;69.60
77865;DHT22;67061;48.524;9.040;2023-04-03T08:01:28;4.10;69.20
77865;DHT22;67061;48.524;9.040;2023-04-03T08:03:57;4.10;68.80
77865;DHT22;67061;48.524;9.040;2023-04-03T08:06:24;4.10;69.90
77865;DHT22;67061;48.524;9.040;2023-04-03T08:08:53;4.20;69.70
77865;DHT22;67061;48.524;9.040;2023-04-03T08:11:20;4.30;70.40
77865;DHT22;67061;48.524;9.040;2023-04-03T08:13:46;4.50;70.50
77865;DHT22;67061;48.524;9.040;2023-04-03T08:16:17;4.70;70.50
77865;DHT22;67061;48.524;9.040;2023-04-03T08:18:44;4.60;69.30
77865;DHT22;67061;48.524;9.040;2023-04-03T08:21:12;4.70;69.50
77865;DHT22;67061;48.524;9.040;2023-04-03T08:23:39;4.50;69.30
77865;DHT22;67061;48.524;9.040;2023-04-03T08:26:10;4.40;69.90
77865;DHT22;67061;48.524;9.040;2023-04-03T08:28:38;4.50;70.60
77865;DHT22;67061;48.524;9.040;2023-04-03T08:31:06;4.60;70.80
77865;DHT22;67061;48.524;9.040;2023-04-03T08:33:34;4.70;70.00
77865;DHT22;67061;48.524;9.040;2023-04-03T08:36:02;4.90;70.70
77865;DHT22;67061;48.524;9.040;2023-04-03T08:38:30;4.90;69.80
77865;DHT22;67061;48.524;9.040;2023-04-03T08:41:04;4.80;69.60
77865;DHT22;67061;48.524;9.040;2023-04-03T08:43:41;4.80;69.30
77865;DHT22;67061;48.524;9.040;2023-04-03T08:46:12;4.90;69.70
77865;DHT22;67061;48.524;9.040;2023-04-03T08:48:42;4.80;69.40
77865;DHT22;67061;48.524;9.040;2023-04-03T08:51:13;4.90;69.20
77865;DHT22;67061;48.524;9.040;2023-04-03T08:53:44;5.00;69.90
77865;DHT22;67061;48.524;9.040;2023-04-03T08:56:14;4.80;68.30
77865;DHT22;67061;48.524;9.040;2023-04-03T08:58:48;4.80;70.70
77865;DHT22;67061;48.524;9.040;2023-04-03T09:01:20;5.00;69.20
77865;DHT22;67061;48.524;9.040;2023-04-03T09:03:48;4.90;69.20
77865;DHT22;67061;48.524;9.040;2023-04-03T09:06:17;5.00;68.90
77865;DHT22;67061;48.524;9.040;2023-04-03T09:08:50;5.10;67.50
77865;DHT22;67061;48.524;9.040;2023-04-03T09:11:22;5.00;69.40
77865;DHT22;67061;48.524;9.040;2023-04-03T09:13:57;5.20;67.60
77865;DHT22;67061;48.524;9.040;2023-04-03T09:16:35;5.10;67.60
77865;DHT22;67061;48.524;9.040;2023-04-03T09:19:11;5.10;67.70
77865;DHT22;67061;48.524;9.040;2023-04-03T09:21:43;5.30;67.10
77865;DHT22;67061;48.524;9.040;2023-04-03T09:24:14;5.30;66.90
77865;DHT22;67061;48.524;9.040;2023-04-03T09:26:45;5.50;68.90
77865;DHT22;67061;48.524;9.040;2023-04-03T09:29:18;5.60;66.90
77865;DHT22;67061;48.524;9.040;2023-04-03T09:31:48;5.60;65.40
77865;DHT22;67061;48.524;9.040;2023-04-03T09:34:20;5.70;65.90
77865;DHT22;67061;48.524;9.040;2023-04-03T09:36:50;5.90;64.30
77865;DHT22;67061;48.524;9.040;2023-04-03T09:39:18;5.70;64.70
77865;DHT22;67061;48.524;9.040;2023-04-03T09:41:57;5.70;65.40
77865;DHT22;67061;48.524;9.040;2023-04-03T09:44:27;5.60;64.70
77865;DHT22;67061;48.524;9.040;2023-04-03T09:46:55;5.60;63.70
77865;DHT22;67061;48.524;9.040;2023-04-03T09:49:22;5.70;64.10
77865;DHT22;67061;48.524;9.040;2023-04-03T09:51:48;5.70;64.70
77865;DHT22;67061;48.524;9.040;2023-04-03T09:54:33;5.60;65.30
77865;DHT22;67061;48.524;9.040;2023-04-03T09:57:07;5.50;63.50
77865;DHT22;67061;48.524;9.040;2023-04-03T09:59:39;5.50;63.80
77865;DHT22;67061;48.524;9.040;2023-04-03T10:02:22;5.50;64.40
77865;DHT22;67061;48.524;9.040;2023-04-03T10:04:51;5.60;64.80
77865;DHT22;67061;48.524;9.040;2023-04-03T10:07:31;5.70;63.50
77865;DHT22;67061;48.524;9.040;2023-04-03T10:09:59;5.80;63.30
77865;DHT22;67061;48.524;9.040;2023-04-03T10:12:27;5.80;63.20
77865;DHT22;67061;48.524;9.040;2023-04-03T10:14:57;5.90;64.00
77865;DHT22;67061;48.524;9.040;2023-04-03T10:17:33;5.80;63.80
77865;DHT22;67061;48.524;9.040;2023-04-03T10:20:07;5.70;62.60
77865;DHT22;67061;48.524;9.040;2023-04-03T10:22:40;5.80;63.30
77865;DHT22;67061;48.524;9.040;2023-04-03T10:25:14;5.80;62.80
77865;DHT22;67061;48.524;9.040;2023-04-03T10:27:52;5.80;62.50
77865;DHT22;67061;48.524;9.040;2023-04-03T10:30:42;5.60;62.20
77865;DHT22;67061;48.524;9.040;2023-04-03T10:33:34;5.70;61.90
77865;DHT22;67061;48.524;9.040;2023-04-03T10:36:10;5.80;60.40
77865;DHT22;67061;48.524;9.040;2023-04-03T10:38:46;6.00;60.90
77865;DHT22;67061;48.524;9.040;2023-04-03T10:41:20;6.00;60.10
77865;DHT22;67061;48.524;9.040;2023-04-03T10:43:58;5.80;60.40
77865;DHT22;67061;48.524;9.040;2023-04-03T10:46:36;5.90;62.20
77865;DHT22;67061;48.524;9.040;2023-04-03T10:49:15;6.30;60.30
77865;DHT22;67061;48.524;9.040;2023-04-03T10:51:50;6.10;59.80
77865;DHT22;67061;48.524;9.040;2023-04-03T10:54:29;6.10;59.80
77865;DHT22;67061;48.524;9.040;2023-04-03T10:57:02;6.20;58.90
77865;DHT22;67061;48.524;9.040;2023-04-03T10:59:32;6.20;57.80
77865;DHT22;67061;48.524;9.040;2023-04-03T11:02:05;5.80;59.00
77865;DHT22;67061;48.524;9.040;2023-04-03T11:04:36;5.80;59.30
77865;DHT22;67061;48.524;9.040;2023-04-03T11:07:10;5.70;59.10
77865;DHT22;67061;48.524;9.040;2023-04-03T11:09:40;5.70;58.70
77865;DHT22;67061;48.524;9.040;2023-04-03T11:12:13;5.60;60.10
77865;DHT22;67061;48.524;9.040;2023-04-03T11:14:41;5.90;59.50
77865;DHT22;67061;48.524;9.040;2023-04-03T11:17:19;6.10;59.30
77865;DHT22;67061;48.524;9.040;2023-04-03T11:19:52;6.10;59.10
77865;DHT22;67061;48.524;9.040;2023-04-03T11:22:26;6.20;58.40
77865;DHT22;67061;48.524;9.040;2023-04-03T11:24:59;6.00;59.20
77865;DHT22;67061;48.524;9.040;2023-04-03T11:27:33;6.20;58.70
77865;DHT22;67061;48.524;9.040;2023-04-03T11:30:06;6.00;57.90
77865;DHT22;67061;48.524;9.040;2023-04-03T11:32:54;6.00;57.40
77865;DHT22;67061;48.524;9.040;2023-04-03T11:35:30;6.20;57.10
77865;DHT22;67061;48.524;9.040;2023-04-03T11:37:59;6.30;56.90
77865;DHT22;67061;48.524;9.040;2023-04-03T11:40:29;6.30;56.40
77865;DHT22;67061;48.524;9.040;2023-04-03T11:43:05;6.20;56.40
77865;DHT22;67061;48.524;9.040;2023-04-03T11:45:36;6.20;56.60
77865;DHT22;67061;48.524;9.040;2023-04-03T11:48:06;6.10;57.20
77865;DHT22;67061;48.524;9.040;2023-04-03T11:50:55;6.10;57.00
77865;DHT22;67061;48.524;9.040;2023-04-03T11:53:34;6.20;56.40
77865;DHT22;67061;48.524;9.040;2023-04-03T11:56:29;6.30;56.20
77865;DHT22;67061;48.524;9.040;2023-04-03T11:59:22;6.20;54.40
77865;DHT22;67061;48.524;9.040;2023-04-03T12:01:51;6.00;56.60
77865;DHT22;67061;48.524;9.040;2023-04-03T12:04:19;6.20;57.00
77865;DHT22;67061;48.524;9.040;2023-04-03T12:10:18;6.50;56.50
77865;DHT22;67061;48.524;9.040;2023-04-03T12:12:59;6.30;58.00
77865;DHT22;67061;48.524;9.040;2023-04-03T12:15:51;6.40;58.40
77865;DHT22;67061;48.524;9.040;2023-04-03T12:18:56;6.50;58.00
77865;DHT22;67061;48.524;9.040;2023-04-03T12:24:33;6.40;58.20
77865;DHT22;67061;48.524;9.040;2023-04-03T12:27:26;6.30;58.30
77865;DHT22;67061;48.524;9.040;2023-04-03T12:29:59;6.10;57.60
77865;DHT22;67061;48.524;9.040;2023-04-03T12:32:37;6.00;58.80
77865;DHT22;67061;48.524;9.040;2023-04-03T12:35:20;5.80;58.80
77865;DHT22;67061;48.524;9.040;2023-04-03T12:40:56;6.10;58.30
77865;DHT22;67061;48.524;9.040;2023-04-03T12:43:37;6.00;58.20
77865;DHT22;67061;48.524;9.040;2023-04-03T12:46:12;6.10;57.60
77865;DHT22;67061;48.524;9.040;2023-04-03T12:48:48;6.10;56.50
77865;DHT22;67061;48.524;9.040;2023-04-03T12:51:18;6.10;56.20
77865;DHT22;67061;48.524;9.040;2023-04-03T12:53:46;6.10;55.90
77865;DHT22;67061;48.524;9.040;2023-04-03T12:56:23;6.20;56.70
77865;DHT22;67061;48.524;9.040;2023-04-03T12:58:54;6.30;55.40
77865;DHT22;67061;48.524;9.040;2023-04-03T13:01:24;6.20;55.50
77865;DHT22;67061;48.524;9.040;2023-04-03T13:03:54;6.10;56.50
77865;DHT22;67061;48.524;9.040;2023-04-03T13:06:23;6.30;57.00
77865;DHT22;67061;48.524;9.040;2023-04-03T13:08:53;6.40;55.80
77865;DHT22;67061;48.524;9.040;2023-04-03T13:11:23;6.30;57.00
77865;DHT22;67061;48.524;9.040;2023-04-03T13:13:56;6.40;57.40
77865;DHT22;67061;48.524;9.040;2023-04-03T13:16:23;6.40;56.40
77865;DHT22;67061;48.524;9.040;2023-04-03T13:18:52;6.50;56.20
77865;DHT22;67061;48.524;9.040;2023-04-03T13:21:22;6.40;55.70
77865;DHT22;67061;48.524;9.040;2023-04-03T13:23:52;6.30;56.60
77865;DHT22;67061;48.524;9.040;2023-04-03T13:26:22;6.40;56.10
77865;DHT22;67061;48.524;9.040;2023-04-03T13:28:51;6.50;56.40
77865;DHT22;67061;48.524;9.040;2023-04-03T13:31:24;6.50;55.50
77865;DHT22;67061;48.524;9.040;2023-04-03T13:33:58;6.50;55.30
77865;DHT22;67061;48.524;9.040;2023-04-03T13:36:29;6.50;55.30
77865;DHT22;67061;48.524;9.040;2023-04-03T13:39:03;6.60;56.20
77865;DHT22;67061;48.524;9.040;2023-04-03T13:41:31;6.40;55.60
77865;DHT22;67061;48.524;9.040;2023-04-03T13:44:30;6.50;56.00
77865;DHT22;67061;48.524;9.040;2023-04-03T13:47:00;6.70;55.40
77865;DHT22;67061;48.524;9.040;2023-04-03T13:49:31;6.60;56.30
77865;DHT22;67061;48.524;9.040;2023-04-03T13:51:58;6.60;55.20
77865;DHT22;67061;48.524;9.040;2023-04-03T13:54:30;6.70;55.20
77865;DHT22;67061;48.524;9.040;2023-04-03T13:56:59;6.80;54.80
77865;DHT22;67061;48.524;9.040;2023-04-03T13:59:28;6.60;53.70
77865;DHT22;67061;48.524;9.040;2023-04-03T14:02:13;6.50;54.20
77865;DHT22;67061;48.524;9.040;2023-04-03T14:04:52;6.40;54.60
77865;DHT22;67061;48.524;9.040;2023-04-03T14:07:22;6.40;56.00
77865;DHT22;67061;48.524;9.040;2023-04-03T14:09:49;6.60;54.70
77865;DHT22;67061;48.524;9.040;2023-04-03T14:12:19;6.50;54.00
77865;DHT22;67061;48.524;9.040;2023-04-03T14:14:47;6.50;54.30
77865;DHT22;67061;48.524;9.040;2023-04-03T14:17:19;6.50;53.60
77865;DHT22;67061;48.524;9.040;2023-04-03T14:19:47;6.30;54.00
77865;DHT22;67061;48.524;9.040;2023-04-03T14:22:17;6.20;55.40
77865;DHT22;67061;48.524;9.040;2023-04-03T14:24:45;6.30;55.60
77865;DHT22;67061;48.524;9.040;2023-04-03T14:27:17;6.30;54.80
77865;DHT22;67061;48.524;9.040;2023-04-03T14:29:45;6.30;55.00
77865;DHT22;67061;48.524;9.040;2023-04-03T14:32:13;6.20;55.00
77865;DHT22;67061;48.524;9.040;2023-04-03T14:34:43;6.30;55.80
77865;DHT22;67061;48.524;9.040;2023-04-03T14:37:11;6.30;54.30
77865;DHT22;67061;48.524;9.040;2023-04-03T14:39:39;6.40;54.60
77865;DHT22;67061;48.524;9.040;2023-04-03T14:42:06;6.50;53.30
77865;DHT22;67061;48.524;9.040;2023-04-03T14:44:36;6.40;54.60
77865;DHT22;67061;48.524;9.040;2023-04-03T14:47:04;6.40;55.00
77865;DHT22;67061;48.524;9.040;2023-04-03T14:49:31;6.40;53.30
77865;DHT22;67061;48.524;9.040;2023-04-03T14:52:03;6.10;54.00
77865;DHT22;67061;48.524;9.040;2023-04-03T14:54:30;6.20;55.20
77865;DHT22;67061;48.524;9.040;2023-04-03T14:56:58;6.30;53.60
77865;DHT22;67061;48.524;9.040;2023-04-03T14:59:26;6.10;54.50
77865;DHT22;67061;48.524;9.040;2023-04-03T15:01:54;6.20;54.10
77865;DHT22;67061;48.524;9.040;2023-04-03T15:04:21;6.20;54.10
77865;DHT22;67061;48.524;9.040;2023-04-03T15:06:48;6.20;53.40
77865;DHT22;67061;48.524;9.040;2023-04-03T15:09:22;6.10;53.90
77865;DHT22;67061;48.524;9.040;2023-04-03T15:11:49;6.00;54.70
77865;DHT22;67061;48.524;9.040;2023-04-03T15:14:17;6.00;53.50
77865;DHT22;67061;48.524;9.040;2023-04-03T15:16:44;6.00;53.60
77865;DHT22;67061;48.524;9.040;2023-04-03T15:19:11;6.00;54.90
77865;DHT22;67061;48.524;9.040;2023-04-03T15:21:39;6.00;54.40
77865;DHT22;67061;48.524;9.040;2023-04-03T15:24:06;6.00;53.30
77865;DHT22;67061;48.524;9.040;2023-04-03T15:26:34;5.90;53.50
77865;DHT22;67061;48.524;9.040;2023-04-03T15:29:01;5.90;54.00
77865;DHT22;67061;48.524;9.040;2023-04-03T15:31:29;5.90;53.70
77865;DHT22;67061;48.524;9.040;2023-04-03T15:33:57;5.90;53.20
77865;DHT22;67061;48.524;9.040;2023-04-03T15:36:23;6.00;55.40
77865;DHT22;67061;48.524;9.040;2023-04-03T15:38:50;6.10;53.70
77865;DHT22;67061;48.524;9.040;2023-04-03T15:41:17;6.10;53.50
77865;DHT22;67061;48.524;9.040;2023-04-03T15:43:45;6.20;52.50
77865;DHT22;67061;48.524;9.040;2023-04-03T15:46:13;6.10;52.60
77865;DHT22;67061;48.524;9.040;2023-04-03T15:48:40;6.10;52.50
77865;DHT22;67061;48.524;9.040;2023-04-03T15:51:07;6.00;52.60
77865;DHT22;67061;48.524;9.040;2023-04-03T15:53:34;5.90;53.30
77865;DHT22;67061;48.524;9.040;2023-04-03T15:56:01;6.00;53.90
77865;DHT22;67061;48.524;9.040;2023-04-03T15:58:28;6.00;53.70
77865;DHT22;67061;48.524;9.040;2023-04-03T16:00:56;5.90;53.90
77865;DHT22;67061;48.524;9.040;2023-04-03T16:03:23;5.90;54.20
77865;DHT22;67061;48.524;9.040;2023-04-03T16:05:50;5.90;56.00
77865;DHT22;67061;48.524;9.040;2023-04-03T16:08:18;5.90;55.20
77865;DHT22;67061;48.524;9.040;2023-04-03T16:10:45;5.90;54.40